Time;durP1;ratioP1;P1;durP2;ratioP2;P2;SDS_P1;SDS_P2;PMS_P1;PMS_P2;Temp;Humidity;BMP_temperature;BMP_pressure;BME280_temperature;BME280_humidity;BME280_pressure;Samples;Min_cycle;Max_cycle;Signal;HPM_P1;HPM_P2
2022/11/29 15:03:15;;;;;;;64.32;21.33;;;8.80;92.00;;;;;;5131894;27;20115;-61
2022/11/29 15:05:45;;;;;;;70.88;19.80;;;8.80;92.10;;;;;;5132105;28;20023;-64
2022/11/29 15:08:31;;;;;;;65.15;17.98;;;8.80;91.90;;;;;;5131982;28;20049;-62
2022/11/29 15:11:10;;;;;;;67.10;18.88;;;8.80;91.80;;;;;;5131593;28;20097;-62
2022/11/29 15:13:43;;;;;;;69.68;20.80;;;8.80;91.70;;;;;;5131890;28;20332;-50
2022/11/29 15:16:54;;;;;;;62.00;18.98;;;9.00;91.60;;;;;;5131679;28;20019;-53
2022/11/29 15:19:48;;;;;;;66.20;21.38;;;9.00;91.30;;;;;;5107291;28;20092;-49
2022/11/29 15:22:16;;;;;;;61.70;17.90;;;8.90;91.10;;;;;;5114366;28;20084;-50
2022/11/29 15:25:08;;;;;;;66.70;17.25;;;8.90;91.20;;;;;;5132517;28;20026;-50
2022/11/29 15:27:33;;;;;;;59.70;18.13;;;8.90;90.80;;;;;;5131352;28;20023;-49
2022/11/29 15:30:19;;;;;;;56.55;18.27;;;8.90;90.90;;;;;;5131829;28;20030;-50
2022/11/29 15:32:45;;;;;;;58.08;16.45;;;8.80;91.10;;;;;;5131541;28;20023;-49
2022/11/29 15:35:17;;;;;;;61.58;19.02;;;8.80;91.20;;;;;;5130498;28;20096;-51
2022/11/29 15:37:45;;;;;;;59.75;19.60;;;8.80;91.10;;;;;;5131670;28;20023;-50
2022/11/29 15:40:22;;;;;;;75.18;18.95;;;8.80;91.20;;;;;;5130970;28;20023;-51
2022/11/29 15:42:49;;;;;;;58.30;16.90;;;8.80;91.30;;;;;;5130740;27;20059;-50
2022/11/29 15:45:24;;;;;;;46.88;18.00;;;8.80;91.40;;;;;;5131160;27;20027;-52
2022/11/29 15:47:51;;;;;;;58.85;17.88;;;8.80;91.30;;;;;;5130868;27;20054;-52
2022/11/29 15:50:30;;;;;;;66.03;17.10;;;8.70;91.60;;;;;;5131061;27;20028;-51
2022/11/29 15:53:02;;;;;;;59.70;20.93;;;8.70;91.50;;;;;;5130749;28;20492;-48
2022/11/29 15:55:28;;;;;;;51.92;15.23;;;8.60;91.70;;;;;;5131226;27;20387;-49
2022/11/29 15:57:57;;;;;;;63.47;18.23;;;8.70;91.70;;;;;;5131077;28;20101;-49
2022/11/29 16:00:24;;;;;;;53.97;15.43;;;8.60;91.30;;;;;;5130709;27;20074;-48
2022/11/29 16:03:03;;;;;;;66.40;19.52;;;8.70;91.50;;;;;;5130197;27;20122;-49
2022/11/29 16:05:36;;;;;;;54.17;15.20;;;8.70;91.40;;;;;;5129456;28;20102;-48
2022/11/29 16:08:15;;;;;;;66.80;18.15;;;8.70;91.00;;;;;;5128966;28;20042;-51
2022/11/29 16:10:49;;;;;;;46.78;14.90;;;8.70;91.10;;;;;;5130366;27;20023;-50
2022/11/29 16:13:35;;;;;;;68.45;17.48;;;8.70;90.90;;;;;;5123757;27;20073;-50
2022/11/29 16:16:18;;;;;;;47.22;16.80;;;8.60;90.90;;;;;;5116725;28;20031;-52
2022/11/29 16:18:46;;;;;;;54.58;15.05;;;8.70;91.10;;;;;;5117199;28;20019;-49
2022/11/29 16:21:28;;;;;;;50.95;15.30;;;8.60;91.00;;;;;;5116333;28;20020;-52
2022/11/29 16:23:55;;;;;;;50.35;16.48;;;8.60;91.00;;;;;;5116898;28;20016;-50
2022/11/29 16:26:35;;;;;;;50.70;16.63;;;8.70;90.90;;;;;;5116459;28;20020;-50
2022/11/29 16:29:01;;;;;;;63.38;18.77;;;8.70;91.00;;;;;;5115545;28;20387;-51
2022/11/29 16:31:36;;;;;;;55.13;16.15;;;8.60;91.00;;;;;;5116173;28;20028;-53
2022/11/29 16:34:33;;;;;;;56.55;18.70;;;8.60;91.20;;;;;;5116269;28;20092;-50
2022/11/29 16:37:07;;;;;;;61.03;15.73;;;8.50;91.40;;;;;;5092563;28;20457;-53
2022/11/29 16:39:36;;;;;;;58.28;17.45;;;8.60;91.50;;;;;;5114644;28;20085;-50
2022/11/29 16:42:23;;;;;;;51.83;15.60;;;8.50;91.50;;;;;;5116055;28;20034;-50
2022/11/29 16:44:53;;;;;;;65.60;16.95;;;8.50;91.70;;;;;;5116253;28;20020;-52
2022/11/29 16:47:21;;;;;;;58.10;16.98;;;8.50;91.70;;;;;;5114673;28;20383;-52
2022/11/29 16:50:08;;;;;;;63.63;21.50;;;8.50;91.80;;;;;;5116265;28;20028;-48
2022/11/29 16:52:34;;;;;;;54.80;16.30;;;8.60;91.80;;;;;;5116071;28;20027;-49
2022/11/29 16:54:59;;;;;;;69.15;18.05;;;8.50;91.90;;;;;;5115977;28;20092;-48
2022/11/29 16:57:30;;;;;;;62.38;19.55;;;8.50;92.00;;;;;;5116000;28;20055;-49
2022/11/29 16:59:55;;;;;;;59.78;18.52;;;8.50;92.00;;;;;;5116338;28;20058;-50
2022/11/29 17:02:21;;;;;;;49.03;18.10;;;8.40;92.00;;;;;;5114339;28;20506;-51
2022/11/29 17:04:47;;;;;;;54.70;19.42;;;8.40;92.10;;;;;;5114620;28;20023;-49
2022/11/29 17:07:20;;;;;;;77.70;20.85;;;8.40;92.10;;;;;;5115742;28;20016;-50
2022/11/29 17:09:46;;;;;;;58.90;19.30;;;8.40;92.30;;;;;;5116129;28;20106;-52
2022/11/29 17:12:12;;;;;;;60.28;20.58;;;8.30;92.40;;;;;;5114678;28;20428;-51
2022/11/29 17:14:38;;;;;;;63.67;21.10;;;8.30;92.30;;;;;;5115746;27;20483;-50
2022/11/29 17:17:05;;;;;;;68.80;21.95;;;8.40;92.50;;;;;;5115532;28;20043;-48
2022/11/29 17:19:30;;;;;;;77.80;25.33;;;8.40;92.30;;;;;;5115266;28;20027;-48
2022/11/29 17:21:56;;;;;;;71.32;23.38;;;8.40;92.30;;;;;;5115239;28;20027;-48
2022/11/29 17:24:23;;;;;;;56.83;19.48;;;8.40;92.40;;;;;;5114353;28;20020;-50
2022/11/29 17:26:49;;;;;;;60.28;20.67;;;8.30;92.40;;;;;;5114867;28;20032;-50
2022/11/29 17:29:15;;;;;;;68.90;22.33;;;8.40;92.50;;;;;;5115281;28;20099;-50
2022/11/29 17:31:45;;;;;;;66.13;25.10;;;8.40;92.30;;;;;;5115202;28;20028;-52
2022/11/29 17:34:11;;;;;;;65.47;23.75;;;8.40;92.30;;;;;;5115977;28;20092;-51
2022/11/29 17:36:37;;;;;;;57.65;21.08;;;8.40;92.40;;;;;;5115209;27;20031;-52
2022/11/29 17:39:03;;;;;;;67.25;21.58;;;8.40;92.40;;;;;;5115086;28;20023;-49
2022/11/29 17:41:31;;;;;;;73.95;23.80;;;8.40;92.20;;;;;;5115167;28;20532;-47
2022/11/29 17:43:57;;;;;;;60.20;21.13;;;8.40;92.30;;;;;;5115786;28;20011;-51
2022/11/29 17:46:26;;;;;;;62.78;24.13;;;8.40;92.30;;;;;;5115854;28;20051;-52
2022/11/29 17:48:52;;;;;;;65.18;22.75;;;8.40;92.30;;;;;;5114825;28;20051;-50
2022/11/29 17:51:21;;;;;;;56.90;20.70;;;8.40;92.20;;;;;;5114962;28;20481;-50
2022/11/29 17:53:48;;;;;;;70.45;22.15;;;8.40;92.30;;;;;;5114927;28;20106;-52
2022/11/29 17:56:16;;;;;;;66.13;22.85;;;8.40;92.10;;;;;;5114703;28;20110;-48
2022/11/29 17:58:42;;;;;;;60.40;21.55;;;8.30;92.10;;;;;;5114618;28;20015;-51
2022/11/29 18:01:16;;;;;;;62.47;22.00;;;8.30;92.20;;;;;;5114020;28;20365;-51
2022/11/29 18:03:43;;;;;;;67.45;23.98;;;8.40;92.10;;;;;;5114747;28;20026;-49
2022/11/29 18:06:11;;;;;;;67.85;21.20;;;8.40;92.00;;;;;;5114638;28;20027;-48
2022/11/29 18:08:43;;;;;;;54.47;20.92;;;8.40;92.10;;;;;;5114749;28;20028;-49
2022/11/29 18:11:20;;;;;;;69.82;24.63;;;8.40;92.10;;;;;;5116936;28;20028;-50
2022/11/29 18:13:47;;;;;;;65.13;23.08;;;8.30;92.10;;;;;;5115120;28;20137;-50
2022/11/29 18:16:15;;;;;;;63.40;21.95;;;8.40;92.20;;;;;;5114648;28;20023;-50
2022/11/29 18:18:41;;;;;;;53.67;22.33;;;8.40;92.20;;;;;;5117036;27;20027;-51
2022/11/29 18:21:08;;;;;;;61.80;22.00;;;8.30;92.20;;;;;;5114561;28;20043;-48
2022/11/29 18:23:36;;;;;;;64.75;21.17;;;8.30;92.30;;;;;;5112633;28;20039;-50
2022/11/29 18:26:05;;;;;;;66.55;23.35;;;8.30;92.30;;;;;;5113752;28;20024;-49
2022/11/29 18:28:34;;;;;;;63.83;21.90;;;8.30;92.40;;;;;;5113892;28;20020;-51
2022/11/29 18:31:21;;;;;;;71.00;21.42;;;8.30;92.40;;;;;;5112804;28;20110;-51
2022/11/29 18:33:49;;;;;;;65.32;21.08;;;8.40;92.30;;;;;;5113810;28;20048;-49
2022/11/29 18:36:17;;;;;;;50.50;21.58;;;8.30;92.30;;;;;;5113737;28;20019;-50
2022/11/29 18:38:44;;;;;;;59.75;20.95;;;8.30;92.30;;;;;;5114042;28;20015;-49
2022/11/29 18:41:19;;;;;;;62.50;21.58;;;8.30;92.50;;;;;;5113877;28;20037;-52
2022/11/29 18:43:46;;;;;;;66.90;23.20;;;8.20;92.50;;;;;;5114061;28;20055;-51
2022/11/29 18:46:18;;;;;;;60.63;21.92;;;8.10;92.50;;;;;;5114039;28;20054;-62
2022/11/29 18:48:45;;;;;;;70.78;23.23;;;8.20;92.60;;;;;;5113510;28;20019;-62
2022/11/29 18:51:17;;;;;;;71.32;25.23;;;8.20;92.60;;;;;;5114089;28;20035;-61
2022/11/29 18:53:44;;;;;;;62.05;25.58;;;8.20;92.40;;;;;;5113869;28;20097;-58
2022/11/29 18:56:15;;;;;;;61.67;21.88;;;8.20;92.40;;;;;;5113681;28;20039;-61
2022/11/29 18:58:46;;;;;;;66.10;22.40;;;8.10;92.30;;;;;;5114005;28;20020;-61
2022/11/29 19:01:17;;;;;;;60.45;22.10;;;8.00;92.60;;;;;;5112047;28;20043;-60
2022/11/29 19:03:51;;;;;;;60.25;23.25;;;8.00;92.70;;;;;;5113943;28;20045;-62
2022/11/29 19:06:23;;;;;;;76.50;26.65;;;8.00;92.80;;;;;;5113612;28;20020;-61
2022/11/29 19:08:50;;;;;;;72.70;22.85;;;7.90;92.80;;;;;;5114241;28;20015;-61
2022/11/29 19:11:19;;;;;;;69.82;27.40;;;7.90;92.90;;;;;;5114120;28;20023;-61
2022/11/29 19:13:45;;;;;;;68.28;26.63;;;7.90;92.90;;;;;;5113004;28;20486;-61
2022/11/29 19:16:17;;;;;;;85.82;28.50;;;8.00;93.00;;;;;;5114052;28;20032;-62
2022/11/29 19:18:44;;;;;;;59.08;25.50;;;7.90;93.00;;;;;;5113534;28;20030;-62
2022/11/29 19:21:20;;;;;;;66.28;25.25;;;7.90;93.10;;;;;;5113834;28;20523;-62
2022/11/29 19:23:54;;;;;;;67.80;24.88;;;7.90;93.10;;;;;;5113746;28;20020;-62
2022/11/29 19:26:20;;;;;;;80.80;26.45;;;7.90;93.10;;;;;;5113898;28;20036;-63
2022/11/29 19:28:46;;;;;;;68.30;25.63;;;7.90;93.20;;;;;;5114338;28;20023;-62
2022/11/29 19:31:14;;;;;;;73.65;26.30;;;7.90;93.20;;;;;;5113863;28;20073;-61
2022/11/29 19:33:43;;;;;;;65.38;25.92;;;8.00;93.20;;;;;;5113761;28;20052;-64
2022/11/29 19:36:14;;;;;;;72.38;24.70;;;7.90;93.00;;;;;;5113989;28;20535;-62
2022/11/29 19:38:40;;;;;;;79.00;26.58;;;7.90;93.00;;;;;;5113888;28;20080;-61
2022/11/29 19:41:14;;;;;;;72.10;24.60;;;8.00;93.20;;;;;;5114073;28;20027;-62
2022/11/29 19:43:40;;;;;;;76.05;27.88;;;8.00;93.10;;;;;;5114787;28;20027;-63
2022/11/29 19:46:13;;;;;;;81.43;28.05;;;7.90;93.20;;;;;;5114263;28;20038;-62
2022/11/29 19:48:40;;;;;;;83.20;28.58;;;7.90;93.40;;;;;;5116399;28;20340;-62
2022/11/29 19:51:07;;;;;;;72.07;28.17;;;7.90;93.50;;;;;;5117499;28;20012;-61
2022/11/29 19:53:33;;;;;;;71.93;27.85;;;7.80;93.60;;;;;;5117241;28;20085;-63
2022/11/29 19:56:03;;;;;;;82.20;29.00;;;7.80;93.80;;;;;;5117439;27;20027;-61
2022/11/29 19:58:29;;;;;;;70.63;27.85;;;7.80;93.90;;;;;;5117371;28;20019;-60
2022/11/29 20:00:55;;;;;;;84.97;29.55;;;7.90;93.90;;;;;;5117140;28;20400;-62
2022/11/29 20:03:20;;;;;;;92.03;31.08;;;7.80;93.90;;;;;;5117406;28;20020;-60
2022/11/29 20:05:54;;;;;;;78.22;28.23;;;7.80;94.00;;;;;;5117108;28;20353;-60
2022/11/29 20:08:20;;;;;;;84.05;31.45;;;7.80;94.10;;;;;;5117171;28;20099;-62
2022/11/29 20:10:45;;;;;;;85.63;31.63;;;7.80;94.10;;;;;;5116908;28;20044;-60
2022/11/29 20:13:11;;;;;;;99.72;32.58;;;7.80;94.20;;;;;;5117282;28;20429;-59
2022/11/29 20:15:36;;;;;;;93.10;30.40;;;7.80;94.20;;;;;;5116952;28;20038;-61
2022/11/29 20:18:03;;;;;;;87.50;31.73;;;7.80;94.30;;;;;;5116817;27;20031;-62
2022/11/29 20:20:29;;;;;;;87.40;29.15;;;7.90;94.40;;;;;;5117085;28;20474;-60
2022/11/29 20:22:55;;;;;;;94.95;29.25;;;7.90;94.30;;;;;;5116422;28;20059;-63
2022/11/29 20:25:21;;;;;;;91.53;29.95;;;7.80;94.40;;;;;;5115426;28;20069;-62
2022/11/29 20:27:47;;;;;;;81.22;27.17;;;7.90;94.50;;;;;;5116502;28;20047;-59
2022/11/29 20:30:13;;;;;;;84.72;28.55;;;7.90;94.40;;;;;;5116911;28;20407;-61
2022/11/29 20:32:39;;;;;;;89.50;29.52;;;7.90;94.30;;;;;;5116871;27;20068;-60
2022/11/29 20:35:05;;;;;;;93.40;29.92;;;7.90;94.30;;;;;;5116521;28;20530;-61
2022/11/29 20:37:34;;;;;;;87.13;29.40;;;7.90;94.30;;;;;;5116543;28;20038;-61
2022/11/29 20:40:03;;;;;;;79.68;29.73;;;7.90;94.20;;;;;;5116349;28;20023;-62
2022/11/29 20:43:14;;;;;;;71.97;29.15;;;7.90;94.30;;;;;;5114862;28;20036;-60
2022/11/29 20:45:40;;;;;;;78.95;31.02;;;8.10;94.30;;;;;;5073484;28;20032;-60
2022/11/29 20:48:16;;;;;;;76.20;30.10;;;8.10;94.10;;;;;;5110251;28;20035;-60
2022/11/29 20:50:45;;;;;;;80.78;29.20;;;8.10;94.20;;;;;;5116097;28;20055;-62
2022/11/29 20:53:32;;;;;;;90.03;31.07;;;8.20;94.10;;;;;;5116113;28;20065;-62
2022/11/29 20:55:57;;;;;;;88.07;30.20;;;8.10;93.80;;;;;;5115999;28;20693;-61
2022/11/29 20:58:25;;;;;;;89.35;30.63;;;8.20;93.90;;;;;;5115718;28;20041;-61
